Time;durP1;ratioP1;P1;durP2;ratioP2;P2;SDS_P1;SDS_P2;PMS_P1;PMS_P2;Temp;Humidity;BMP_temperature;BMP_pressure;BME280_temperature;BME280_humidity;BME280_pressure;Samples;Min_cycle;Max_cycle;Signal;HPM_P1;HPM_P2
2022/06/24 00:00:14;;;;;;;6.40;3.75;;;15.70;99.70;;;;;;5102523;28;20040;-56
2022/06/24 00:02:48;;;;;;;8.65;3.85;;;15.70;99.90;;;;;;5100377;28;20047;-58
2022/06/24 00:05:16;;;;;;;6.22;3.72;;;15.60;99.90;;;;;;5107566;28;20043;-58
2022/06/24 00:07:49;;;;;;;6.05;3.58;;;15.60;99.90;;;;;;5097031;28;20467;-58
2022/06/24 00:10:28;;;;;;;6.95;3.95;;;15.60;99.90;;;;;;5105639;28;20032;-57
2022/06/24 00:12:56;;;;;;;5.47;3.42;;;15.60;99.90;;;;;;5091582;28;20446;-57
2022/06/24 00:15:28;;;;;;;4.07;3.47;;;15.60;99.90;;;;;;5106957;28;20137;-58
2022/06/24 00:17:56;;;;;;;5.90;3.65;;;15.50;99.90;;;;;;5104879;28;20051;-59
2022/06/24 00:20:24;;;;;;;5.20;3.58;;;15.50;99.90;;;;;;5089936;28;20321;-58
2022/06/24 00:22:52;;;;;;;5.93;3.80;;;15.50;99.90;;;;;;5089902;28;20384;-58
2022/06/24 00:25:23;;;;;;;4.60;3.10;;;15.50;99.90;;;;;;5096538;28;20475;-59
2022/06/24 00:28:08;;;;;;;4.82;3.90;;;15.40;99.90;;;;;;5097190;28;20074;-58
2022/06/24 00:30:52;;;;;;;6.38;3.70;;;15.40;99.90;;;;;;5092968;28;20044;-58
2022/06/24 00:33:22;;;;;;;4.82;3.35;;;15.40;99.90;;;;;;5097345;28;20051;-58
2022/06/24 00:35:51;;;;;;;7.07;3.53;;;15.30;99.90;;;;;;5108583;28;20058;-55
2022/06/24 00:38:33;;;;;;;6.05;3.42;;;15.30;99.90;;;;;;5103499;28;20048;-58
2022/06/24 00:41:03;;;;;;;7.25;3.85;;;15.20;99.90;;;;;;5088902;28;20643;-58
2022/06/24 00:43:44;;;;;;;4.22;3.30;;;15.20;99.90;;;;;;5089332;28;20052;-58
2022/06/24 00:46:23;;;;;;;5.88;3.67;;;15.10;99.90;;;;;;5098443;28;20486;-59
2022/06/24 00:48:52;;;;;;;6.97;4.35;;;15.00;99.90;;;;;;5109919;28;20419;-59
2022/06/24 00:51:22;;;;;;;6.80;3.28;;;15.10;99.90;;;;;;5105985;28;20051;-58
2022/06/24 00:53:52;;;;;;;6.03;3.35;;;15.00;99.90;;;;;;5108956;28;20043;-55
2022/06/24 00:56:22;;;;;;;;;;;15.00;99.90;;;;;;5109404;28;20051;-58
2022/06/24 00:59:01;;;;;;;7.88;3.97;;;14.90;99.90;;;;;;5100949;28;19924;-57
2022/06/24 01:01:31;;;;;;;5.60;4.10;;;14.90;99.90;;;;;;5103670;28;20069;-55
2022/06/24 01:04:01;;;;;;;4.70;3.55;;;14.90;99.90;;;;;;5106894;28;20046;-57
2022/06/24 01:06:30;;;;;;;7.07;4.25;;;14.80;99.90;;;;;;5102167;28;20055;-57
2022/06/24 01:08:58;;;;;;;6.03;4.00;;;14.70;99.90;;;;;;5097162;28;20495;-58
2022/06/24 01:11:33;;;;;;;6.82;4.93;;;14.70;99.90;;;;;;5088992;28;20048;-57
2022/06/24 01:14:02;;;;;;;5.95;3.53;;;14.70;99.90;;;;;;5089437;28;20074;-56
2022/06/24 01:16:30;;;;;;;7.07;4.32;;;14.60;99.90;;;;;;5088991;28;20384;-58
2022/06/24 01:19:04;;;;;;;6.25;4.00;;;14.60;99.90;;;;;;5089248;28;20048;-57
2022/06/24 01:21:42;;;;;;;5.25;3.25;;;14.60;99.90;;;;;;5086658;28;20376;-57
2022/06/24 01:24:16;;;;;;;5.50;3.28;;;14.60;99.90;;;;;;5104216;28;20043;-58
2022/06/24 01:26:48;;;;;;;6.05;3.38;;;14.60;99.90;;;;;;5101365;28;20044;-58
2022/06/24 01:29:19;;;;;;;6.60;4.03;;;14.60;99.90;;;;;;5096013;28;20040;-57
2022/06/24 01:31:49;;;;;;;6.07;3.92;;;14.50;99.90;;;;;;5100449;28;20407;-58
2022/06/24 01:34:18;;;;;;;6.90;4.68;;;14.40;99.90;;;;;;5109895;28;20047;-58
2022/06/24 01:36:46;;;;;;;6.28;3.70;;;14.40;99.90;;;;;;5098388;28;20087;-57
2022/06/24 01:39:15;;;;;;;6.30;4.60;;;14.40;99.90;;;;;;5107478;28;20518;-57
2022/06/24 01:41:42;;;;;;;5.78;4.50;;;14.30;99.90;;;;;;5114063;28;20044;-57
2022/06/24 01:44:10;;;;;;;8.65;5.10;;;14.30;99.90;;;;;;5114499;28;20062;-58
2022/06/24 01:46:37;;;;;;;7.93;4.72;;;14.30;99.90;;;;;;5109019;28;20336;-55
2022/06/24 01:49:05;;;;;;;6.78;4.43;;;14.20;99.90;;;;;;5111895;28;20058;-57
2022/06/24 01:51:35;;;;;;;8.63;4.97;;;14.20;99.90;;;;;;5098218;28;20032;-54
2022/06/24 01:54:03;;;;;;;10.75;5.63;;;14.20;99.90;;;;;;5107832;28;20048;-54
2022/06/24 01:56:30;;;;;;;8.43;5.45;;;14.20;99.90;;;;;;5110937;28;20043;-54
2022/06/24 01:58:59;;;;;;;7.68;5.68;;;14.10;99.90;;;;;;5112973;28;20043;-55
2022/06/24 02:01:26;;;;;;;10.20;6.15;;;14.10;99.90;;;;;;5113887;28;20035;-54
2022/06/24 02:03:54;;;;;;;12.52;6.50;;;14.10;99.90;;;;;;5114620;28;20267;-57
2022/06/24 02:06:22;;;;;;;13.32;6.22;;;14.10;99.90;;;;;;5104224;28;20161;-58
2022/06/24 02:08:51;;;;;;;9.55;7.00;;;14.00;99.90;;;;;;5092520;28;20608;-57
2022/06/24 02:14:09;;;;;;;10.40;5.88;;;14.00;99.90;;;;;;5105991;28;20295;-58
2022/06/24 02:16:40;;;;;;;8.95;5.88;;;14.00;99.90;;;;;;5103542;28;20403;-58
2022/06/24 02:19:08;;;;;;;10.23;5.25;;;14.00;99.90;;;;;;5093359;28;20533;-58
2022/06/24 02:21:36;;;;;;;8.52;5.72;;;14.00;99.90;;;;;;5099468;28;20051;-57
2022/06/24 02:24:05;;;;;;;12.07;6.68;;;13.90;99.90;;;;;;5093643;28;20391;-58
2022/06/24 02:26:32;;;;;;;8.63;6.15;;;13.90;99.90;;;;;;5092928;28;20040;-58
2022/06/24 02:29:00;;;;;;;8.88;6.45;;;13.90;99.90;;;;;;5107410;28;20051;-58
2022/06/24 02:31:28;;;;;;;9.82;6.20;;;13.90;99.90;;;;;;5100167;28;20059;-58
2022/06/24 02:33:56;;;;;;;8.98;6.25;;;13.90;99.90;;;;;;5107454;28;20043;-58
2022/06/24 02:36:24;;;;;;;11.68;5.68;;;13.80;99.90;;;;;;5102025;28;20043;-57
2022/06/24 02:38:52;;;;;;;8.10;6.07;;;13.90;99.90;;;;;;5097060;28;20040;-58
2022/06/24 02:41:20;;;;;;;12.00;6.40;;;13.80;99.90;;;;;;5112700;28;20498;-58
2022/06/24 02:43:47;;;;;;;11.13;5.28;;;13.80;99.90;;;;;;5112873;28;20051;-57
2022/06/24 02:46:18;;;;;;;8.80;5.82;;;13.70;99.90;;;;;;5103082;28;20399;-58
2022/06/24 02:48:46;;;;;;;9.05;6.05;;;13.70;99.90;;;;;;5103926;28;20044;-57
2022/06/24 02:51:15;;;;;;;7.80;5.20;;;13.70;99.90;;;;;;5112142;28;20051;-58
2022/06/24 02:53:43;;;;;;;6.90;5.25;;;13.70;99.90;;;;;;5111495;28;20058;-57
2022/06/24 02:56:13;;;;;;;9.13;5.57;;;13.60;99.90;;;;;;5101751;28;20126;-58
2022/06/24 02:58:42;;;;;;;7.63;5.28;;;13.60;99.90;;;;;;5093176;28;20510;-58
2022/06/24 03:01:10;;;;;;;8.85;4.85;;;13.60;99.90;;;;;;5092391;28;20418;-59
2022/06/24 03:03:38;;;;;;;9.85;5.32;;;13.60;99.90;;;;;;5102804;28;20403;-58
2022/06/24 03:06:07;;;;;;;6.32;5.07;;;13.50;99.90;;;;;;5111594;28;20044;-58
2022/06/24 03:08:35;;;;;;;6.78;4.85;;;13.50;99.90;;;;;;5093245;28;20052;-58
2022/06/24 03:11:08;;;;;;;9.35;5.97;;;13.50;99.90;;;;;;5091597;28;20048;-58
2022/06/24 03:13:36;;;;;;;11.25;6.10;;;13.50;99.90;;;;;;5092528;28;20044;-59
2022/06/24 03:16:04;;;;;;;8.82;5.82;;;13.40;99.90;;;;;;5091457;28;20040;-58
2022/06/24 03:18:31;;;;;;;9.65;6.68;;;13.40;99.90;;;;;;5107533;28;20048;-58
2022/06/24 03:20:59;;;;;;;9.05;6.00;;;13.40;99.90;;;;;;5107285;28;20052;-57
2022/06/24 03:23:26;;;;;;;10.15;7.55;;;13.40;99.90;;;;;;5092716;28;20055;-59
2022/06/24 03:25:54;;;;;;;13.10;6.78;;;13.30;99.90;;;;;;5092700;28;20499;-58
2022/06/24 03:28:21;;;;;;;12.85;6.50;;;13.30;99.90;;;;;;5105948;28;20043;-59
2022/06/24 03:30:49;;;;;;;9.90;6.90;;;13.30;99.90;;;;;;5109228;28;20067;-58
2022/06/24 03:33:17;;;;;;;9.02;6.05;;;13.30;99.90;;;;;;5093313;28;20079;-56
2022/06/24 03:35:44;;;;;;;8.98;6.25;;;13.30;99.90;;;;;;5111894;28;20044;-58
2022/06/24 03:38:12;;;;;;;7.60;5.50;;;13.30;99.90;;;;;;5112719;28;20225;-57
2022/06/24 03:40:39;;;;;;;7.18;5.47;;;13.30;99.90;;;;;;5111518;28;20395;-58
2022/06/24 03:43:07;;;;;;;8.65;5.72;;;13.30;99.90;;;;;;5112873;28;20133;-56
2022/06/24 03:45:35;;;;;;;8.23;6.05;;;13.30;99.90;;;;;;5111493;28;20052;-57
2022/06/24 03:48:03;;;;;;;10.85;6.60;;;13.20;99.90;;;;;;5105695;28;20048;-62
2022/06/24 03:50:30;;;;;;;10.20;6.65;;;13.20;99.90;;;;;;5111210;28;20495;-56
2022/06/24 03:52:58;;;;;;;11.88;7.07;;;13.20;99.90;;;;;;5110778;28;20031;-55
2022/06/24 03:55:25;;;;;;;12.40;6.85;;;13.10;99.90;;;;;;5112237;28;20047;-55
2022/06/24 03:57:53;;;;;;;10.63;6.65;;;13.20;99.90;;;;;;5109020;28;20055;-54
2022/06/24 04:00:21;;;;;;;9.80;6.38;;;13.10;99.90;;;;;;5091238;28;20391;-55
2022/06/24 04:02:48;;;;;;;8.50;5.80;;;13.10;99.90;;;;;;5106575;28;20055;-55
2022/06/24 04:05:16;;;;;;;10.80;5.95;;;13.10;99.90;;;;;;5110698;28;20051;-55
2022/06/24 04:07:43;;;;;;;8.45;6.32;;;13.10;99.90;;;;;;5111569;28;20386;-55
2022/06/24 04:10:11;;;;;;;11.65;6.72;;;13.00;99.90;;;;;;5111955;28;20505;-56
2022/06/24 04:12:39;;;;;;;11.48;6.78;;;13.10;99.90;;;;;;5109501;28;20059;-56
2022/06/24 04:15:17;;;;;;;12.75;7.38;;;13.00;99.90;;;;;;5111378;28;20044;-55
2022/06/24 04:17:47;;;;;;;11.63;7.55;;;13.00;99.90;;;;;;5109542;28;20039;-55
2022/06/24 04:20:17;;;;;;;15.45;7.57;;;13.00;99.90;;;;;;5110433;28;20522;-55
2022/06/24 04:22:45;;;;;;;;;;;13.00;99.90;;;;;;5110814;28;20047;-58
2022/06/24 04:25:12;;;;;;;12.02;7.75;;;13.00;99.90;;;;;;5108257;28;20263;-55
2022/06/24 04:27:40;;;;;;;9.45;6.78;;;13.00;99.90;;;;;;5091039;28;20056;-55
2022/06/24 04:30:11;;;;;;;7.75;6.05;;;13.00;99.90;;;;;;5091504;28;20048;-55
2022/06/24 04:32:39;;;;;;;8.38;5.30;;;13.00;99.90;;;;;;5091216;28;20044;-58
2022/06/24 04:35:07;;;;;;;10.23;6.22;;;13.00;99.90;;;;;;5104057;28;20048;-58
2022/06/24 04:37:36;;;;;;;13.35;6.78;;;13.00;99.90;;;;;;5109779;28;20048;-58
2022/06/24 04:40:12;;;;;;;11.13;7.20;;;13.00;99.90;;;;;;5111745;28;20051;-55
2022/06/24 04:42:40;;;;;;;16.42;9.13;;;13.00;99.90;;;;;;5110996;28;20398;-58
2022/06/24 04:45:08;;;;;;;16.23;9.00;;;13.00;99.90;;;;;;5111455;28;20067;-57
2022/06/24 04:47:37;;;;;;;11.75;8.30;;;13.00;99.90;;;;;;5102715;28;20658;-57
2022/06/24 04:50:06;;;;;;;13.20;8.40;;;13.10;99.90;;;;;;5087429;28;20541;-58
2022/06/24 04:52:35;;;;;;;15.98;8.90;;;13.10;99.90;;;;;;5089348;28;20044;-55
2022/06/24 04:55:03;;;;;;;15.30;9.10;;;13.10;99.90;;;;;;5107414;28;20051;-58
2022/06/24 04:57:30;;;;;;;13.40;9.30;;;13.20;99.90;;;;;;5093956;28;20055;-59
2022/06/24 04:59:58;;;;;;;15.15;9.43;;;13.20;99.90;;;;;;5107687;28;20479;-58
2022/06/24 05:02:26;;;;;;;14.43;9.10;;;13.30;99.90;;;;;;5098884;28;20059;-56
2022/06/24 05:04:53;;;;;;;17.55;9.93;;;13.40;99.90;;;;;;5089692;28;20054;-56
2022/06/24 05:07:21;;;;;;;13.65;10.02;;;13.50;99.90;;;;;;5087872;28;20070;-56
2022/06/24 05:09:49;;;;;;;16.88;10.75;;;13.70;99.90;;;;;;5105406;28;20058;-57
2022/06/24 05:12:16;;;;;;;15.73;10.68;;;13.80;99.90;;;;;;5100979;28;20036;-57
2022/06/24 05:14:44;;;;;;;20.30;12.27;;;13.90;99.90;;;;;;5113821;28;20048;-57
2022/06/24 05:17:16;;;;;;;27.13;14.75;;;14.00;99.90;;;;;;5101595;28;20039;-56
2022/06/24 05:19:43;;;;;;;23.48;14.30;;;14.20;99.90;;;;;;5093766;28;20055;-55
2022/06/24 05:22:11;;;;;;;24.25;11.73;;;14.30;99.90;;;;;;5108385;28;20043;-55
2022/06/24 05:24:39;;;;;;;18.30;11.43;;;14.40;99.90;;;;;;5110231;28;20051;-55
2022/06/24 05:27:06;;;;;;;18.58;11.05;;;14.50;99.90;;;;;;5101194;28;20044;-55
2022/06/24 05:29:34;;;;;;;31.85;15.77;;;14.60;99.90;;;;;;5100570;28;20398;-55
2022/06/24 05:32:02;;;;;;;24.50;15.02;;;14.60;99.90;;;;;;5104825;28;20047;-55
2022/06/24 05:34:30;;;;;;;33.08;15.60;;;14.70;99.90;;;;;;5109694;28;20039;-57
2022/06/24 05:36:57;;;;;;;32.13;17.98;;;14.80;99.90;;;;;;5100662;28;20402;-58
2022/06/24 05:39:25;;;;;;;36.58;19.13;;;14.90;99.90;;;;;;5091863;28;20387;-58
2022/06/24 05:41:52;;;;;;;33.30;17.75;;;15.00;99.90;;;;;;5099973;28;20823;-57
2022/06/24 05:44:20;;;;;;;33.55;18.77;;;15.00;99.90;;;;;;5108780;28;20076;-56
2022/06/24 05:46:48;;;;;;;34.97;17.92;;;15.10;99.90;;;;;;5094304;28;20557;-58
2022/06/24 05:49:15;;;;;;;29.88;17.05;;;15.10;99.90;;;;;;5107301;28;20036;-56
2022/06/24 05:51:43;;;;;;;34.45;17.38;;;15.10;99.90;;;;;;5104817;28;20550;-58
2022/06/24 05:56:57;;;;;;;32.42;18.52;;;15.10;99.90;;;;;;5107112;28;20058;-58
2022/06/24 05:59:24;;;;;;;29.80;16.17;;;15.20;99.90;;;;;;5102705;28;20521;-58
2022/06/24 06:01:52;;;;;;;32.10;16.80;;;15.20;99.90;;;;;;5108473;28;20479;-56
2022/06/24 06:04:19;;;;;;;27.77;16.33;;;15.20;99.90;;;;;;5089784;28;20044;-57
2022/06/24 06:06:48;;;;;;;28.33;17.35;;;15.30;99.90;;;;;;5092287;28;20044;-56
2022/06/24 06:09:15;;;;;;;30.80;16.48;;;15.30;99.90;;;;;;5108441;28;20048;-58
2022/06/24 06:11:43;;;;;;;24.73;16.23;;;15.30;99.90;;;;;;5100940;28;20046;-59
2022/06/24 06:14:10;;;;;;;26.88;14.85;;;15.40;99.90;;;;;;5112568;28;20043;-55
2022/06/24 06:16:38;;;;;;;30.92;17.30;;;15.40;99.90;;;;;;5098892;28;20044;-54
2022/06/24 06:19:06;;;;;;;36.67;17.58;;;15.40;99.90;;;;;;5095855;28;20043;-55
2022/06/24 06:21:33;;;;;;;37.45;18.25;;;15.50;99.90;;;;;;5108602;28;20048;-55
2022/06/24 06:24:01;;;;;;;33.50;17.70;;;15.50;99.90;;;;;;5109555;28;20475;-54
2022/06/24 06:26:29;;;;;;;36.47;18.15;;;15.50;99.90;;;;;;5100672;28;20044;-55
2022/06/24 06:28:57;;;;;;;33.17;17.88;;;15.50;99.90;;;;;;5100379;28;20043;-59
2022/06/24 06:31:24;;;;;;;33.97;19.25;;;15.50;99.90;;;;;;5101614;28;20050;-59
2022/06/24 06:33:52;;;;;;;35.03;18.30;;;15.50;99.90;;;;;;5094352;28;20042;-57
2022/06/24 06:36:20;;;;;;;38.33;18.08;;;15.60;99.90;;;;;;5104973;28;20510;-58
2022/06/24 06:38:47;;;;;;;31.15;16.15;;;15.60;99.90;;;;;;5101806;28;20047;-58
2022/06/24 06:41:17;;;;;;;31.27;16.35;;;15.60;99.90;;;;;;5105454;28;20509;-58
2022/06/24 06:43:45;;;;;;;32.15;16.73;;;15.60;99.90;;;;;;5100749;28;20036;-60
2022/06/24 06:46:13;;;;;;;32.15;16.02;;;15.60;99.90;;;;;;5091629;28;20043;-58
2022/06/24 06:48:41;;;;;;;32.40;16.75;;;15.70;99.90;;;;;;5098318;28;20391;-55
2022/06/24 06:51:09;;;;;;;28.60;15.90;;;15.70;99.90;;;;;;5100633;28;20395;-55
2022/06/24 06:53:37;;;;;;;24.92;14.32;;;15.80;99.90;;;;;;5110882;28;20035;-55
2022/06/24 06:56:05;;;;;;;24.38;13.60;;;15.80;99.90;;;;;;5110437;28;20039;-54
2022/06/24 06:58:32;;;;;;;22.58;13.35;;;15.80;99.90;;;;;;5100072;28;20186;-58
2022/06/24 07:01:00;;;;;;;19.73;12.85;;;15.80;99.90;;;;;;5104805;28;20047;-57
2022/06/24 07:03:28;;;;;;;20.42;12.40;;;15.80;99.90;;;;;;5098600;28;20391;-59
2022/06/24 07:05:55;;;;;;;25.20;13.27;;;15.80;99.90;;;;;;5086326;28;20048;-59
2022/06/24 07:08:23;;;;;;;20.73;12.25;;;15.90;99.90;;;;;;5093888;28;20429;-59
2022/06/24 07:10:51;;;;;;;20.95;12.40;;;16.00;99.90;;;;;;5103234;28;20047;-57
2022/06/24 07:13:19;;;;;;;20.33;11.60;;;16.10;99.90;;;;;;5089976;28;20408;-60
2022/06/24 07:15:47;;;;;;;19.85;11.60;;;16.30;99.90;;;;;;5102587;28;20643;-60
2022/06/24 07:18:15;;;;;;;20.80;12.00;;;16.50;99.90;;;;;;5099311;28;20048;-59
2022/06/24 07:20:43;;;;;;;21.48;12.27;;;16.60;99.90;;;;;;5102399;28;20048;-59
2022/06/24 07:23:11;;;;;;;18.95;10.70;;;16.80;99.90;;;;;;5100062;28;20040;-59
2022/06/24 07:25:38;;;;;;;16.38;10.93;;;17.00;99.90;;;;;;5106439;28;20494;-58
2022/06/24 07:28:06;;;;;;;20.98;11.43;;;17.20;99.90;;;;;;5092368;28;20047;-58
2022/06/24 07:30:34;;;;;;;18.95;11.00;;;17.30;99.90;;;;;;5098850;28;20048;-58
2022/06/24 07:33:02;;;;;;;18.60;9.82;;;17.50;99.90;;;;;;5093688;28;20402;-59
2022/06/24 07:35:30;;;;;;;17.52;10.10;;;17.70;99.90;;;;;;5089620;28;20502;-60
2022/06/24 07:38:18;;;;;;;14.38;9.20;;;17.80;99.90;;;;;;5091080;28;20347;-59
2022/06/24 07:40:47;;;;;;;16.27;9.18;;;17.90;99.90;;;;;;5090410;28;20055;-60
2022/06/24 07:43:15;;;;;;;17.30;8.95;;;17.90;99.90;;;;;;5090839;28;20043;-59
2022/06/24 07:45:42;;;;;;;16.48;9.93;;;18.00;99.90;;;;;;5090672;28;20040;-60
2022/06/24 07:48:10;;;;;;;13.57;8.57;;;18.10;99.90;;;;;;5091086;28;20040;-59
2022/06/24 07:50:38;;;;;;;14.38;9.27;;;18.20;99.90;;;;;;5090745;28;20052;-60
2022/06/24 07:53:06;;;;;;;13.25;7.97;;;18.30;99.90;;;;;;5088498;28;20047;-61
2022/06/24 07:58:20;;;;;;;12.55;8.13;;;18.50;99.90;;;;;;5090369;28;20044;-57
2022/06/24 08:00:48;;;;;;;20.52;9.50;;;18.50;99.90;;;;;;5090601;28;20048;-60
2022/06/24 08:03:16;;;;;;;10.82;7.43;;;18.40;99.90;;;;;;5090619;28;20039;-59
2022/06/24 08:05:44;;;;;;;12.45;7.88;;;18.40;99.90;;;;;;5089204;28;20055;-60
2022/06/24 08:08:18;;;;;;;17.38;8.65;;;18.30;99.90;;;;;;5093585;28;20036;-59
2022/06/24 08:10:47;;;;;;;11.82;7.43;;;18.20;99.90;;;;;;5109494;28;20402;-58
2022/06/24 08:13:15;;;;;;;10.05;6.82;;;18.20;99.90;;;;;;5109913;28;20070;-58
2022/06/24 08:15:43;;;;;;;10.63;7.25;;;18.20;99.90;;;;;;5109664;28;20051;-58
2022/06/24 08:18:11;;;;;;;12.00;7.32;;;18.20;99.90;;;;;;5105380;28;20046;-59
2022/06/24 08:20:39;;;;;;;10.07;6.45;;;18.20;99.90;;;;;;5087077;28;20497;-59
2022/06/24 08:23:06;;;;;;;13.05;8.02;;;18.30;99.90;;;;;;5090069;28;20047;-59
2022/06/24 08:25:34;;;;;;;10.60;6.88;;;18.30;99.90;;;;;;5089796;28;20092;-58
2022/06/24 08:28:01;;;;;;;16.40;7.78;;;18.30;99.90;;;;;;5090174;28;20043;-60
2022/06/24 08:30:29;;;;;;;8.55;6.07;;;18.40;99.90;;;;;;5090161;28;20499;-59
2022/06/24 08:32:57;;;;;;;10.93;7.53;;;18.40;99.90;;;;;;5089106;28;20040;-59
2022/06/24 08:35:24;;;;;;;10.13;7.20;;;18.40;99.90;;;;;;5090575;28;20494;-59
2022/06/24 08:37:57;;;;;;;9.32;6.93;;;18.40;99.90;;;;;;5089490;28;20032;-59
2022/06/24 08:40:26;;;;;;;12.25;7.50;;;18.50;99.90;;;;;;5089690;28;20047;-58
2022/06/24 08:42:59;;;;;;;14.90;8.13;;;18.50;99.90;;;;;;5090362;28;20044;-58
2022/06/24 08:45:28;;;;;;;12.27;8.65;;;18.50;99.90;;;;;;5089149;28;20058;-59
2022/06/24 08:47:56;;;;;;;14.20;8.52;;;18.50;99.90;;;;;;5089896;28;20055;-59
2022/06/24 08:50:24;;;;;;;15.73;8.77;;;18.40;99.90;;;;;;5089795;28;20032;-58
2022/06/24 08:52:54;;;;;;;19.10;11.00;;;18.30;99.90;;;;;;5090142;28;20044;-58
2022/06/24 08:55:24;;;;;;;16.05;10.25;;;18.30;99.90;;;;;;5090506;28;20036;-59
2022/06/24 08:57:52;;;;;;;19.20;9.68;;;18.10;99.90;;;;;;5090633;28;20623;-59
2022/06/24 09:00:21;;;;;;;15.88;10.60;;;18.00;99.90;;;;;;5107452;28;20054;-58
2022/06/24 09:02:49;;;;;;;14.85;8.98;;;18.00;99.90;;;;;;5108533;28;20056;-58
2022/06/24 09:05:17;;;;;;;16.85;8.20;;;17.90;99.90;;;;;;5106876;28;20043;-58
2022/06/24 09:07:45;;;;;;;14.10;8.60;;;17.80;99.90;;;;;;5104975;28;20043;-55
2022/06/24 09:10:13;;;;;;;17.05;10.68;;;17.70;99.90;;;;;;5089620;28;20044;-55
2022/06/24 09:12:44;;;;;;;15.32;9.05;;;17.60;99.90;;;;;;5088988;28;20048;-56
2022/06/24 09:15:13;;;;;;;13.20;8.85;;;17.60;99.90;;;;;;5093894;28;20062;-56
2022/06/24 09:17:43;;;;;;;12.80;7.27;;;17.50;99.90;;;;;;5105153;28;20044;-55
2022/06/24 09:20:13;;;;;;;13.60;8.05;;;17.50;99.90;;;;;;5089936;28;20062;-56
2022/06/24 09:23:10;;;;;;;13.75;7.95;;;17.50;99.90;;;;;;5108327;28;20040;-56
2022/06/24 09:25:48;;;;;;;14.45;7.80;;;17.50;99.90;;;;;;5109115;28;20142;-56
2022/06/24 09:28:30;;;;;;;16.33;7.97;;;17.50;99.90;;;;;;5089245;28;20048;-56
2022/06/24 09:31:04;;;;;;;14.40;7.63;;;17.50;99.90;;;;;;5089762;28;20044;-58
2022/06/24 09:33:51;;;;;;;12.13;8.57;;;17.60;99.90;;;;;;5089609;28;20040;-57
2022/06/24 09:36:24;;;;;;;12.32;7.25;;;17.60;99.90;;;;;;5089213;28;20051;-58
2022/06/24 09:39:08;;;;;;;12.48;8.13;;;17.60;99.90;;;;;;5089674;28;20044;-58
2022/06/24 09:41:46;;;;;;;15.88;7.60;;;17.70;99.90;;;;;;5089438;28;20048;-60
2022/06/24 09:44:15;;;;;;;18.10;8.95;;;17.70;99.90;;;;;;5089156;28;20048;-58
2022/06/24 09:46:43;;;;;;;14.60;9.05;;;17.80;99.90;;;;;;5086744;28;20052;-58
2022/06/24 09:49:17;;;;;;;13.23;7.88;;;17.80;99.90;;;;;;5086303;28;20040;-57
2022/06/24 09:51:45;;;;;;;19.83;9.68;;;17.90;99.90;;;;;;5086675;28;20163;-57
2022/06/24 09:54:17;;;;;;;16.88;9.32;;;17.90;99.90;;;;;;5089546;28;20044;-58
2022/06/24 09:56:47;;;;;;;14.98;8.77;;;17.90;99.90;;;;;;5089985;28;20056;-56
2022/06/24 10:02:16;;;;;;;13.40;7.95;;;17.80;99.90;;;;;;5092969;28;20048;-58
2022/06/24 10:04:59;;;;;;;12.40;8.80;;;17.90;99.90;;;;;;5093255;28;20059;-58
2022/06/24 10:07:33;;;;;;;17.25;9.18;;;17.90;99.90;;;;;;5092542;28;20419;-58
2022/06/24 10:10:04;;;;;;;18.75;8.98;;;18.10;99.90;;;;;;5092231;28;20055;-58
2022/06/24 10:12:46;;;;;;;18.08;10.70;;;18.20;99.90;;;;;;5092202;28;20065;-58
2022/06/24 10:15:17;;;;;;;18.98;9.57;;;18.40;99.90;;;;;;5092167;28;20055;-58
2022/06/24 10:17:47;;;;;;;15.50;9.15;;;18.60;99.90;;;;;;5092507;28;20044;-57
2022/06/24 10:20:16;;;;;;;17.42;10.32;;;18.80;99.90;;;;;;5091277;28;20045;-56
2022/06/24 10:22:49;;;;;;;23.08;11.10;;;19.00;99.90;;;;;;5091908;28;20052;-56
2022/06/24 10:25:41;;;;;;;18.05;10.63;;;19.10;99.90;;;;;;5089546;28;20051;-56
2022/06/24 10:28:08;;;;;;;16.88;9.32;;;19.10;99.90;;;;;;5088843;28;20044;-56
2022/06/24 10:30:39;;;;;;;17.63;10.23;;;19.20;99.90;;;;;;5091111;28;20498;-56
2022/06/24 10:33:12;;;;;;;19.50;11.40;;;19.20;99.90;;;;;;5091495;28;20052;-57
2022/06/24 10:36:06;;;;;;;16.08;10.10;;;19.20;99.90;;;;;;5092152;28;20047;-58
2022/06/24 10:38:42;;;;;;;14.88;9.70;;;19.10;99.90;;;;;;5074131;28;20048;-57
2022/06/24 10:41:11;;;;;;;18.23;9.50;;;19.10;99.90;;;;;;5092065;28;20056;-57
2022/06/24 10:43:43;;;;;;;16.63;9.68;;;19.00;99.90;;;;;;5090178;28;20044;-58
2022/06/24 10:46:11;;;;;;;18.08;9.35;;;19.00;99.90;;;;;;5087407;28;20537;-58
2022/06/24 10:48:51;;;;;;;16.58;8.93;;;18.90;99.90;;;;;;5088277;28;20075;-58
2022/06/24 10:51:20;;;;;;;14.63;9.10;;;18.90;99.90;;;;;;5091778;28;20047;-58
2022/06/24 10:54:06;;;;;;;18.97;10.90;;;18.90;99.90;;;;;;5091696;28;20047;-57
2022/06/24 10:56:40;;;;;;;17.95;10.13;;;18.80;99.90;;;;;;5091769;28;20044;-57
2022/06/24 10:59:08;;;;;;;17.20;10.25;;;18.80;99.90;;;;;;5092435;28;20640;-56
2022/06/24 11:01:40;;;;;;;21.92;10.02;;;18.80;99.90;;;;;;5090116;28;20492;-56
2022/06/24 11:04:12;;;;;;;16.33;10.65;;;18.80;99.90;;;;;;5091674;28;20044;-56
2022/06/24 11:07:00;;;;;;;16.88;11.02;;;18.90;99.90;;;;;;5092004;28;20047;-57
2022/06/24 11:09:28;;;;;;;19.60;9.73;;;19.20;99.90;;;;;;5090305;28;20055;-58
2022/06/24 11:11:56;;;;;;;18.88;10.40;;;19.60;99.90;;;;;;5091498;28;20048;-58
2022/06/24 11:14:26;;;;;;;18.60;10.30;;;20.00;99.90;;;;;;5090090;28;20048;-57
2022/06/24 11:16:53;;;;;;;16.23;9.38;;;20.40;99.90;;;;;;5091461;28;20048;-58
2022/06/24 11:19:21;;;;;;;16.20;9.73;;;20.70;99.90;;;;;;5090747;28;20134;-58
2022/06/24 11:21:50;;;;;;;13.32;9.25;;;21.10;99.90;;;;;;5091118;28;20036;-57
2022/06/24 11:24:20;;;;;;;;;;;21.40;99.90;;;;;;5091836;28;20082;-56
2022/06/24 11:27:07;;;;;;;20.00;8.50;;;21.80;99.90;;;;;;5091267;28;20291;-55
2022/06/24 11:29:50;;;;;;;12.25;7.93;;;22.20;99.90;;;;;;5091532;28;20051;-56
2022/06/24 11:32:18;;;;;;;10.98;7.15;;;22.50;99.90;;;;;;5089420;28;20052;-56
2022/06/24 11:34:46;;;;;;;10.38;6.88;;;22.70;99.90;;;;;;5091101;28;20044;-56
2022/06/24 11:37:19;;;;;;;9.40;5.55;;;22.80;99.90;;;;;;5091341;28;20411;-56
2022/06/24 11:39:47;;;;;;;13.90;7.60;;;23.00;99.90;;;;;;5090991;28;20044;-56
2022/06/24 11:42:16;;;;;;;13.55;6.75;;;23.10;99.90;;;;;;5088983;28;20047;-56
2022/06/24 11:44:43;;;;;;;11.02;5.97;;;23.20;99.50;;;;;;5090980;28;20044;-56
2022/06/24 11:47:11;;;;;;;9.77;6.22;;;23.10;98.10;;;;;;5090732;28;20368;-56
2022/06/24 11:49:44;;;;;;;11.75;6.28;;;22.80;98.00;;;;;;5090726;28;20036;-56
2022/06/24 11:52:12;;;;;;;11.85;6.13;;;22.60;98.20;;;;;;5091397;28;20652;-56
2022/06/24 11:54:40;;;;;;;9.63;6.20;;;22.20;98.40;;;;;;5091136;28;20047;-58
2022/06/24 11:57:10;;;;;;;18.05;6.28;;;21.90;98.90;;;;;;5090912;28;20423;-58
2022/06/24 11:59:38;;;;;;;11.35;6.55;;;21.70;99.60;;;;;;5089443;28;20052;-59
2022/06/24 12:02:11;;;;;;;9.20;7.13;;;21.60;99.90;;;;;;5090279;28;20052;-57
2022/06/24 12:04:40;;;;;;;10.30;5.82;;;21.50;99.90;;;;;;5072402;28;20623;-58
2022/06/24 12:07:08;;;;;;;11.30;6.25;;;21.40;99.90;;;;;;5090476;28;20615;-58
2022/06/24 12:09:37;;;;;;;11.93;6.25;;;21.20;99.90;;;;;;5094784;28;20046;-58
2022/06/24 12:12:09;;;;;;;10.38;5.93;;;21.20;99.90;;;;;;5098123;28;20406;-58
2022/06/24 12:14:37;;;;;;;8.27;5.93;;;21.00;99.90;;;;;;5094389;27;20047;-58
2022/06/24 12:17:07;;;;;;;14.73;6.00;;;20.80;99.90;;;;;;5101434;28;20062;-58
2022/06/24 12:19:58;;;;;;;15.75;6.45;;;20.70;99.90;;;;;;5090296;28;20055;-58
2022/06/24 12:22:27;;;;;;;8.45;5.40;;;20.60;99.90;;;;;;5100544;28;20055;-58
2022/06/24 12:25:09;;;;;;;10.40;5.35;;;20.50;99.90;;;;;;5092559;28;20039;-58
2022/06/24 12:27:39;;;;;;;8.85;5.40;;;20.50;99.90;;;;;;5094365;28;20047;-57
2022/06/24 12:30:18;;;;;;;11.48;6.70;;;20.50;99.90;;;;;;5101171;28;20058;-59
2022/06/24 12:32:58;;;;;;;13.13;7.40;;;20.60;99.90;;;;;;5105567;28;20629;-58
2022/06/24 12:35:43;;;;;;;14.52;6.88;;;20.60;99.90;;;;;;5093406;28;20533;-58
2022/06/24 12:38:20;;;;;;;12.18;7.78;;;20.60;99.90;;;;;;5091380;28;20521;-57
2022/06/24 12:40:47;;;;;;;14.05;7.47;;;20.70;99.90;;;;;;5093186;28;20039;-57
2022/06/24 12:43:15;;;;;;;13.70;7.10;;;20.70;99.90;;;;;;5101667;28;20638;-58
2022/06/24 12:45:43;;;;;;;22.42;9.10;;;20.60;99.90;;;;;;5101555;28;20035;-58
2022/06/24 12:51:06;;;;;;;17.05;7.68;;;20.40;99.90;;;;;;5106086;28;20391;-58
2022/06/24 12:53:33;;;;;;;11.00;6.80;;;20.30;99.90;;;;;;5090170;28;20059;-58
2022/06/24 12:56:01;;;;;;;10.57;6.78;;;20.20;99.90;;;;;;5097739;28;20044;-59
2022/06/24 12:58:29;;;;;;;13.25;7.28;;;20.30;99.90;;;;;;5097173;28;20051;-58
2022/06/24 13:00:58;;;;;;;15.15;7.05;;;20.40;99.90;;;;;;5091959;28;20051;-58
2022/06/24 13:03:25;;;;;;;10.27;6.70;;;20.40;99.90;;;;;;5105860;28;20052;-57
2022/06/24 13:05:53;;;;;;;13.93;6.40;;;20.40;99.90;;;;;;5091081;28;20051;-58